Time;durP1;ratioP1;P1;durP2;ratioP2;P2;SDS_P1;SDS_P2;PMS_P1;PMS_P2;Temp;Humidity;BMP_temperature;BMP_pressure;BME280_temperature;BME280_humidity;BME280_pressure;Samples;Min_cycle;Max_cycle;Signal;HPM_P1;HPM_P2
2022/12/03 00:00:48;;;;;;;72.53;27.98;;;;;;;-2.27;92.08;101912.21;1752955;81;25534;-84
2022/12/03 00:03:16;;;;;;;73.00;30.65;;;;;;;-2.27;92.00;101917.46;1751107;81;25832;-84
2022/12/03 00:05:43;;;;;;;71.22;27.35;;;;;;;-2.26;92.00;101918.28;1755552;81;27613;-84
2022/12/03 00:08:09;;;;;;;73.12;29.32;;;;;;;-2.27;92.02;101914.84;1751680;81;26337;-84
2022/12/03 00:10:35;;;;;;;75.40;28.62;;;;;;;-2.26;92.05;101916.97;1732552;81;25879;-84
2022/12/03 00:13:02;;;;;;;74.05;29.50;;;;;;;-2.28;92.02;101913.12;1741604;81;26405;-84
2022/12/03 00:15:28;;;;;;;70.42;26.95;;;;;;;-2.27;92.14;101907.42;1763141;79;25271;-84
2022/12/03 00:17:54;;;;;;;74.17;29.52;;;;;;;-2.25;92.18;101911.67;1761803;79;27487;-84
2022/12/03 00:20:24;;;;;;;73.50;28.65;;;;;;;-2.26;92.11;101905.16;1734647;81;25820;-85
2022/12/03 00:22:51;;;;;;;73.25;29.00;;;;;;;-2.27;92.08;101904.80;1732757;82;25798;-84
2022/12/03 00:25:18;;;;;;;71.90;29.10;;;;;;;-2.30;92.11;101906.23;1746771;81;25870;-84
2022/12/03 00:27:44;;;;;;;74.20;27.80;;;;;;;-2.31;92.21;101893.61;1749340;81;25847;-84
2022/12/03 00:30:13;;;;;;;70.35;29.18;;;;;;;-2.28;92.35;101899.14;1741601;81;28280;-85
2022/12/03 00:32:41;;;;;;;72.78;28.42;;;;;;;-2.28;92.63;101900.45;1739514;81;25946;-83
2022/12/03 00:35:09;;;;;;;75.15;29.65;;;;;;;-2.28;92.32;101896.06;1733823;81;25564;-85
2022/12/03 00:37:35;;;;;;;75.65;29.60;;;;;;;-2.27;92.34;101887.73;1745830;81;26417;-85
2022/12/03 00:40:04;;;;;;;70.47;29.90;;;;;;;-2.29;92.33;101885.20;1747729;81;25904;-84
2022/12/03 00:42:30;;;;;;;79.50;29.87;;;;;;;-2.31;92.28;101888.36;1741332;81;28270;-84
2022/12/03 00:44:57;;;;;;;88.07;33.98;;;;;;;-2.30;92.40;101878.23;1732058;81;25792;-84
2022/12/03 00:47:23;;;;;;;77.85;28.50;;;;;;;-2.27;92.51;101885.11;1739381;81;25796;-84
2022/12/03 00:49:49;;;;;;;71.53;29.02;;;;;;;-2.26;92.46;101883.72;1738492;80;25868;-85
2022/12/03 00:52:15;;;;;;;77.47;29.75;;;;;;;-2.26;92.47;101886.80;1731776;80;25272;-84
2022/12/03 00:54:42;;;;;;;70.45;28.90;;;;;;;-2.24;92.53;101887.57;1735854;80;28659;-84
2022/12/03 00:57:08;;;;;;;72.15;28.30;;;;;;;-2.25;92.43;101890.68;1718619;82;25816;-85
2022/12/03 00:59:34;;;;;;;69.40;27.93;;;;;;;-2.26;92.34;101880.23;1705571;83;26168;-85
2022/12/03 01:02:00;;;;;;;83.87;34.05;;;;;;;-2.26;92.42;101881.55;1714932;82;25798;-85
2022/12/03 01:04:27;;;;;;;80.65;30.12;;;;;;;-2.24;92.52;101881.01;1724157;83;26284;-84
2022/12/03 01:06:53;;;;;;;89.07;32.75;;;;;;;-2.23;92.44;101886.20;1719356;82;27677;-84
2022/12/03 01:09:20;;;;;;;79.70;28.38;;;;;;;-2.28;92.44;101864.58;1721045;83;25960;-83
2022/12/03 01:11:46;;;;;;;76.70;31.93;;;;;;;-2.22;92.54;101881.33;1738112;82;25816;-84
2022/12/03 01:14:16;;;;;;;74.90;29.12;;;;;;;-2.19;92.50;101879.88;1739412;81;26147;-82
2022/12/03 01:16:43;;;;;;;74.35;29.52;;;;;;;-2.18;92.44;101877.63;1737312;81;25359;-84
2022/12/03 01:19:15;;;;;;;71.95;28.70;;;;;;;-2.15;92.46;101882.74;1737839;81;27659;-84
2022/12/03 01:21:48;;;;;;;80.40;30.00;;;;;;;-2.15;92.42;101887.98;1739510;81;25865;-84
2022/12/03 01:24:15;;;;;;;75.60;29.35;;;;;;;-2.15;92.37;101878.80;1731639;81;26075;-83
2022/12/03 01:26:41;;;;;;;81.42;31.27;;;;;;;-2.12;92.38;101881.30;1737834;81;25716;-83
2022/12/03 01:29:08;;;;;;;79.12;30.68;;;;;;;-2.11;92.49;101874.24;1741301;81;25820;-83
2022/12/03 01:34:19;;;;;;;74.25;27.75;;;;;;;-2.10;92.30;101874.19;1745504;81;25810;-83
2022/12/03 01:36:45;;;;;;;85.10;33.10;;;;;;;-2.07;92.25;101881.04;1724692;81;25963;-83
2022/12/03 01:39:11;;;;;;;71.05;29.32;;;;;;;-2.08;92.20;101875.42;1724597;83;25952;-83
2022/12/03 01:41:38;;;;;;;75.65;31.20;;;;;;;-2.06;92.26;101871.80;1735585;81;26526;-84
2022/12/03 01:44:16;;;;;;;77.97;30.15;;;;;;;-2.05;92.22;101877.91;1724283;83;27438;-83
2022/12/03 01:46:43;;;;;;;75.50;31.52;;;;;;;-2.04;92.17;101874.34;1749399;81;25882;-84
2022/12/03 01:49:18;;;;;;;88.75;36.28;;;;;;;-2.04;92.16;101873.88;1730907;81;26165;-83
2022/12/03 01:51:46;;;;;;;74.25;29.37;;;;;;;-2.02;92.21;101874.66;1723790;81;25805;-84
2022/12/03 01:54:20;;;;;;;73.20;28.25;;;;;;;-2.02;92.15;101872.03;1734436;81;25303;-85
2022/12/03 01:56:48;;;;;;;82.08;32.48;;;;;;;-1.99;92.16;101874.48;1742131;81;27456;-84
2022/12/03 01:59:20;;;;;;;77.40;31.57;;;;;;;-1.98;92.11;101876.20;1737667;81;25801;-83
2022/12/03 02:01:46;;;;;;;71.05;28.67;;;;;;;-1.97;92.02;101865.24;1733390;82;25773;-84
2022/12/03 02:04:16;;;;;;;82.47;30.95;;;;;;;-1.98;91.99;101867.01;1737197;81;25891;-83
2022/12/03 02:06:44;;;;;;;83.80;30.43;;;;;;;-1.97;91.93;101870.04;1734013;82;25796;-83
2022/12/03 02:09:12;;;;;;;69.45;30.62;;;;;;;-1.94;92.00;101874.26;1755839;81;27900;-84
2022/12/03 02:11:43;;;;;;;85.50;32.10;;;;;;;-1.92;91.98;101872.41;1780048;80;25760;-85
2022/12/03 02:14:16;;;;;;;75.30;30.75;;;;;;;-1.90;92.02;101867.92;1727766;81;25868;-83
2022/12/03 02:16:43;;;;;;;82.72;31.90;;;;;;;-1.86;91.95;101873.44;1728985;81;26416;-84
2022/12/03 02:19:21;;;;;;;79.17;28.55;;;;;;;-1.82;91.98;101874.98;1737124;81;25852;-85
2022/12/03 02:22:08;;;;;;;78.47;33.40;;;;;;;-1.80;91.93;101870.05;1752757;81;28258;-83
2022/12/03 02:25:11;;;;;;;77.30;31.95;;;;;;;-1.80;91.93;101870.05;1751773;81;25854;-84
2022/12/03 02:27:38;;;;;;;73.75;28.47;;;;;;;-1.77;91.81;101872.50;1751785;81;25777;-84
2022/12/03 02:30:07;;;;;;;72.30;28.55;;;;;;;-1.76;91.80;101874.21;1761931;81;25786;-84
2022/12/03 02:32:33;;;;;;;73.62;28.80;;;;;;;-1.77;91.64;101875.58;1749749;81;25736;-83
2022/12/03 02:34:59;;;;;;;77.05;30.35;;;;;;;-1.77;91.63;101871.19;1736417;81;27443;-84
2022/12/03 02:37:31;;;;;;;80.70;33.28;;;;;;;-1.76;91.58;101872.90;1733206;81;25827;-84
2022/12/03 02:40:03;;;;;;;71.85;31.57;;;;;;;-1.75;91.61;101873.27;1723056;81;26057;-85
2022/12/03 02:42:35;;;;;;;74.03;30.62;;;;;;;-1.73;91.69;101875.35;1743027;81;25881;-83
2022/12/03 02:45:19;;;;;;;76.15;30.75;;;;;;;-1.73;91.55;101870.55;1751130;80;25826;-84
2022/12/03 02:47:58;;;;;;;74.75;29.30;;;;;;;-1.70;91.65;101873.03;1738831;81;27742;-83
2022/12/03 02:50:38;;;;;;;71.25;28.25;;;;;;;-1.68;91.61;101873.81;1734897;81;25932;-84
2022/12/03 02:53:15;;;;;;;69.20;27.87;;;;;;;-1.70;91.37;101875.66;1732434;81;25250;-84
2022/12/03 02:55:42;;;;;;;72.42;29.65;;;;;;;-1.70;91.31;101874.35;1769692;80;25799;-85
2022/12/03 02:58:10;;;;;;;71.28;30.10;;;;;;;-1.70;91.42;101873.89;1732211;81;25884;-85
2022/12/03 03:00:38;;;;;;;69.67;27.22;;;;;;;-1.68;91.31;101873.35;1735210;81;27454;-84
2022/12/03 03:03:06;;;;;;;73.70;27.67;;;;;;;-1.69;91.25;101875.58;1759663;80;25807;-84
2022/12/03 03:05:35;;;;;;;75.78;29.92;;;;;;;-1.68;91.22;101880.38;1766819;80;26154;-84
2022/12/03 03:08:03;;;;;;;68.75;27.62;;;;;;;-1.67;91.29;101876.34;1762880;80;25456;-84
2022/12/03 03:10:33;;;;;;;69.87;28.52;;;;;;;-1.66;91.26;101867.55;1762833;80;25922;-84
2022/12/03 03:13:02;;;;;;;77.67;28.67;;;;;;;-1.64;91.29;101867.01;1756029;80;28350;-84
2022/12/03 03:15:28;;;;;;;68.15;26.12;;;;;;;-1.61;91.32;101871.27;1762551;80;26466;-83
2022/12/03 03:17:55;;;;;;;71.82;28.92;;;;;;;-1.62;91.08;101861.67;1767970;80;25971;-84
2022/12/03 03:20:21;;;;;;;73.02;30.72;;;;;;;-1.65;90.96;101862.67;1757449;80;25832;-84
2022/12/03 03:22:48;;;;;;;68.80;28.92;;;;;;;-1.66;91.04;101857.05;1745948;81;25638;-84
2022/12/03 03:25:19;;;;;;;73.57;29.60;;;;;;;-1.64;91.06;101856.96;1737778;81;28754;-85
2022/12/03 03:27:46;;;;;;;74.65;28.62;;;;;;;-1.64;91.06;101856.50;1755010;80;25757;-84
2022/12/03 03:30:13;;;;;;;67.00;27.20;;;;;;;-1.62;91.06;101849.84;1762397;80;25872;-83
2022/12/03 03:32:41;;;;;;;77.47;29.57;;;;;;;-1.63;90.91;101856.05;1752330;80;25880;-83
2022/12/03 03:35:10;;;;;;;70.70;27.42;;;;;;;-1.61;91.11;101856.36;1751160;80;25757;-84
2022/12/03 03:37:37;;;;;;;77.92;27.77;;;;;;;-1.59;91.04;101851.02;1740750;81;27694;-84
2022/12/03 03:40:05;;;;;;;71.40;26.33;;;;;;;-1.58;91.04;101852.70;1743843;81;25819;-85
2022/12/03 03:42:31;;;;;;;65.32;26.05;;;;;;;-1.58;90.91;101850.93;1744454;81;26483;-83
2022/12/03 03:44:57;;;;;;;69.70;28.62;;;;;;;-1.58;90.86;101850.07;1735926;81;25852;-84
2022/12/03 03:47:24;;;;;;;63.65;25.40;;;;;;;-1.58;90.73;101857.50;1725884;81;25894;-83
2022/12/03 03:49:51;;;;;;;64.55;27.32;;;;;;;-1.59;90.74;101851.02;1750285;80;27465;-86
2022/12/03 03:52:19;;;;;;;66.05;28.77;;;;;;;-1.60;90.68;101850.62;1763425;80;25768;-84
2022/12/03 03:54:46;;;;;;;63.83;28.02;;;;;;;-1.60;90.75;101844.91;1744295;81;25766;-85
2022/12/03 03:57:13;;;;;;;62.35;26.57;;;;;;;-1.61;90.67;101847.17;1744203;81;26031;-84
2022/12/03 03:59:39;;;;;;;61.40;25.80;;;;;;;-1.62;90.69;101847.22;1756578;81;25310;-84
2022/12/03 04:02:22;;;;;;;68.02;28.32;;;;;;;-1.61;90.80;101846.31;1750101;81;27445;-84
2022/12/03 04:04:48;;;;;;;64.07;26.57;;;;;;;-1.58;90.88;101846.13;1721460;81;25882;-84
2022/12/03 04:07:15;;;;;;;57.80;24.82;;;;;;;-1.53;90.92;101841.95;1732699;82;26004;-84
2022/12/03 04:09:42;;;;;;;59.10;24.45;;;;;;;-1.54;90.58;101845.53;1738012;81;26255;-84
2022/12/03 04:14:57;;;;;;;59.27;25.72;;;;;;;-1.58;90.53;101849.61;1738243;81;27483;-85
2022/12/03 04:17:24;;;;;;;65.67;26.45;;;;;;;-1.58;90.48;101852.24;1744211;81;25311;-84
2022/12/03 04:19:51;;;;;;;64.30;28.02;;;;;;;-1.57;90.57;101850.02;1737352;81;25742;-84
2022/12/03 04:30:33;;;;;;;63.48;26.65;;;;;;;-1.62;90.21;101840.20;1734691;81;25394;-84
2022/12/03 04:35:42;;;;;;;52.10;23.30;;;;;;;-1.57;90.49;101837.34;1710543;81;26005;-84
2022/12/03 04:38:14;;;;;;;55.17;25.37;;;;;;;-1.56;90.37;101835.94;1735646;81;26073;-84
2022/12/03 04:40:59;;;;;;;57.40;25.40;;;;;;;-1.58;90.23;101833.85;1725943;83;27443;-84
2022/12/03 04:43:32;;;;;;;57.93;24.77;;;;;;;-1.58;90.29;101835.16;1725337;83;25859;-84
2022/12/03 04:45:59;;;;;;;57.17;25.02;;;;;;;-1.57;90.37;101843.91;1753022;81;25862;-84
2022/12/03 04:48:26;;;;;;;58.75;24.52;;;;;;;-1.55;90.33;101835.48;1755279;80;25731;-83
2022/12/03 04:50:53;;;;;;;52.15;24.92;;;;;;;-1.55;90.25;101834.16;1755944;80;54000;-84
2022/12/03 04:53:19;;;;;;;57.20;25.10;;;;;;;-1.54;90.16;101833.70;1752485;80;27455;-84
2022/12/03 04:55:45;;;;;;;54.08;24.80;;;;;;;-1.52;90.19;101833.16;1768003;80;25815;-84
2022/12/03 04:58:12;;;;;;;47.98;22.42;;;;;;;-1.50;90.23;101835.24;1749646;81;25912;-84
2022/12/03 05:00:38;;;;;;;49.65;24.00;;;;;;;-1.52;89.99;101830.53;1755332;80;25854;-83
2022/12/03 05:03:04;;;;;;;52.93;24.70;;;;;;;-1.54;89.92;101823.20;1749824;81;26569;-84
2022/12/03 05:05:30;;;;;;;54.50;24.00;;;;;;;-1.54;90.02;101827.14;1750103;80;28306;-84
2022/12/03 05:07:57;;;;;;;54.15;23.42;;;;;;;-1.52;90.01;101820.02;1734890;81;25794;-83
2022/12/03 05:10:23;;;;;;;50.65;23.65;;;;;;;-1.51;89.93;101820.39;1754674;80;25808;-83
2022/12/03 05:12:49;;;;;;;53.35;23.85;;;;;;;-1.52;89.83;101821.34;1760158;80;25838;-84
2022/12/03 05:15:16;;;;;;;47.88;23.40;;;;;;;-1.53;89.72;101822.25;1761766;80;25756;-85
2022/12/03 05:17:42;;;;;;;54.60;24.00;;;;;;;-1.51;89.90;101818.62;1751946;80;27423;-84
2022/12/03 05:22:54;;;;;;;44.42;23.32;;;;;;;-1.51;89.72;101813.82;1725344;83;25351;-84
2022/12/03 05:25:20;;;;;;;44.75;21.02;;;;;;;-1.55;89.61;101810.52;1761140;80;25790;-83
2022/12/03 05:27:47;;;;;;;48.40;22.73;;;;;;;-1.55;89.61;101810.52;1754164;81;25942;-82
2022/12/03 05:30:14;;;;;;;49.27;24.00;;;;;;;-1.59;89.60;101815.09;1726101;81;28226;-84
2022/12/03 05:32:40;;;;;;;44.10;21.40;;;;;;;-1.60;89.59;101813.84;1755118;80;26214;-82
2022/12/03 05:35:09;;;;;;;49.08;24.27;;;;;;;-1.63;89.80;101807.45;1760983;80;25850;-83
2022/12/03 05:37:35;;;;;;;46.85;21.20;;;;;;;-1.63;89.80;101807.45;1725791;81;25735;-82
2022/12/03 05:40:02;;;;;;;53.52;24.65;;;;;;;-1.61;89.73;101802.96;1732983;81;25319;-83
2022/12/03 05:45:14;;;;;;;48.90;24.15;;;;;;;-1.60;89.71;101804.19;1729853;81;25316;-82
2022/12/03 05:47:41;;;;;;;51.02;24.63;;;;;;;-1.58;89.76;101809.35;1762993;80;25864;-84
2022/12/03 05:50:07;;;;;;;44.15;22.73;;;;;;;-1.60;89.88;101795.45;1766239;80;25727;-84
2022/12/03 05:52:34;;;;;;;50.43;23.98;;;;;;;-1.51;89.81;101803.31;1772376;80;25804;-84
2022/12/03 05:55:00;;;;;;;49.53;24.02;;;;;;;-1.51;89.74;101804.17;1752723;80;27449;-83
2022/12/03 05:57:28;;;;;;;49.50;24.65;;;;;;;-1.50;89.74;101804.57;1752588;80;25307;-84
2022/12/03 05:59:54;;;;;;;47.58;23.75;;;;;;;-1.47;89.76;101800.91;1757580;80;25845;-83
2022/12/03 06:02:20;;;;;;;46.02;23.70;;;;;;;-1.44;89.78;101802.07;1738250;81;25963;-83
2022/12/03 06:04:47;;;;;;;45.70;22.62;;;;;;;-1.43;89.57;101802.47;1744428;81;26194;-83
2022/12/03 06:07:13;;;;;;;50.78;26.12;;;;;;;-1.49;89.62;101796.20;1742077;81;27551;-83
2022/12/03 06:09:40;;;;;;;49.98;24.92;;;;;;;-1.45;89.44;101795.95;1758654;80;25266;-84
2022/12/03 06:12:11;;;;;;;52.40;24.45;;;;;;;-1.44;89.50;101799.44;1765821;80;25847;-84
2022/12/03 06:14:34;;;;;;;48.15;23.70;;;;;;;-1.44;89.49;101804.70;1758587;80;26021;-83
2022/12/03 06:17:02;;;;;;;52.40;25.68;;;;;;;-1.43;89.61;101801.98;1746715;81;26156;-83
2022/12/03 06:19:28;;;;;;;50.58;25.35;;;;;;;-1.41;89.58;101812.43;1740989;81;27449;-83
2022/12/03 06:21:54;;;;;;;48.20;24.27;;;;;;;-1.40;89.52;101818.05;1747198;81;25894;-84
2022/12/03 06:24:21;;;;;;;53.13;24.18;;;;;;;-1.40;89.43;101820.22;1734480;81;25837;-84
2022/12/03 06:26:47;;;;;;;49.30;24.98;;;;;;;-1.41;89.45;101821.62;1740010;80;26242;-82
2022/12/03 06:29:13;;;;;;;48.63;23.85;;;;;;;-1.41;89.42;101824.25;1743964;81;26345;-84
2022/12/03 06:31:39;;;;;;;53.75;26.00;;;;;;;-1.39;89.51;101828.48;1756436;80;27542;-83
2022/12/03 06:34:06;;;;;;;49.33;24.70;;;;;;;-1.35;89.62;101834.44;1756372;80;25839;-84
2022/12/03 06:36:32;;;;;;;52.23;25.60;;;;;;;-1.29;89.65;101836.28;1733273;81;25336;-84
2022/12/03 06:38:58;;;;;;;56.05;29.02;;;;;;;-1.26;89.65;101836.59;1758539;80;25816;-83
2022/12/03 06:41:25;;;;;;;48.73;26.25;;;;;;;-1.24;89.47;101836.04;1744388;80;25775;-83
2022/12/03 06:43:51;;;;;;;46.75;23.83;;;;;;;-1.24;89.41;101834.23;1744488;82;27452;-82
2022/12/03 06:46:17;;;;;;;56.40;26.35;;;;;;;-1.23;89.29;101837.72;1758348;80;26432;-84
2022/12/03 06:48:43;;;;;;;47.27;24.35;;;;;;;-1.20;89.35;101836.26;1744425;82;25761;-83
2022/12/03 06:51:10;;;;;;;48.02;24.45;;;;;;;-1.22;89.19;101835.49;1774772;80;25794;-83
2022/12/03 06:53:36;;;;;;;46.48;24.77;;;;;;;-1.23;89.15;101839.89;1707188;83;25294;-83
2022/12/03 06:56:03;;;;;;;48.68;24.10;;;;;;;-1.23;89.14;101835.09;1715422;82;27441;-84
2022/12/03 06:58:29;;;;;;;45.08;23.47;;;;;;;-1.21;89.15;101839.80;1734662;81;25909;-83
2022/12/03 07:00:55;;;;;;;49.33;25.65;;;;;;;-1.21;89.17;101841.12;1745484;80;25838;-84
2022/12/03 07:03:21;;;;;;;48.70;25.10;;;;;;;-1.19;89.23;101839.25;1721195;82;26546;-85
2022/12/03 07:05:48;;;;;;;48.85;25.10;;;;;;;-1.19;89.08;101834.85;1744676;80;26445;-82
2022/12/03 07:08:14;;;;;;;50.52;26.25;;;;;;;-1.15;89.25;101839.47;1749604;80;27442;-84
2022/12/03 07:10:40;;;;;;;51.28;24.82;;;;;;;-1.13;89.30;101830.58;1736480;82;26553;-83
2022/12/03 07:13:07;;;;;;;48.17;24.70;;;;;;;-1.11;89.23;101823.45;1714211;81;25807;-84
2022/12/03 07:15:33;;;;;;;50.45;25.37;;;;;;;-1.12;89.12;101821.77;1732124;82;25862;-84
2022/12/03 07:17:59;;;;;;;49.48;24.40;;;;;;;-1.14;89.07;101819.69;1732849;81;26074;-83
2022/12/03 07:20:25;;;;;;;50.38;24.40;;;;;;;-1.14;89.14;101822.32;1775417;80;27460;-83
2022/12/03 07:22:52;;;;;;;53.15;24.35;;;;;;;-1.13;89.16;101824.00;1747810;81;25883;-83
2022/12/03 07:25:18;;;;;;;51.48;24.30;;;;;;;-1.13;89.06;101813.94;1740834;81;26248;-83
2022/12/03 07:27:44;;;;;;;50.35;24.92;;;;;;;-1.14;89.09;101816.20;1753957;81;25466;-83
2022/12/03 07:30:14;;;;;;;47.40;23.85;;;;;;;-1.15;89.14;101815.35;1745686;80;25382;-83
2022/12/03 07:32:40;;;;;;;42.95;22.17;;;;;;;-1.13;89.24;101809.54;1741341;81;27460;-84
2022/12/03 07:35:08;;;;;;;50.88;25.70;;;;;;;-1.12;89.10;101820.91;1748823;80;26383;-83
2022/12/03 07:37:34;;;;;;;53.55;26.02;;;;;;;-1.12;89.23;101816.52;1726900;81;25773;-83
2022/12/03 07:40:01;;;;;;;48.13;24.47;;;;;;;-1.12;89.23;101815.20;1741156;81;26703;-85
2022/12/03 07:42:27;;;;;;;46.30;24.92;;;;;;;-1.10;89.25;101811.16;1746627;81;25857;-82
2022/12/03 07:44:53;;;;;;;57.88;27.82;;;;;;;-1.09;89.36;101817.64;1748365;80;27506;-84
2022/12/03 07:47:20;;;;;;;62.13;30.52;;;;;;;-1.06;89.37;101816.63;1732822;81;26387;-83
2022/12/03 07:49:46;;;;;;;51.70;25.43;;;;;;;-1.04;89.39;101810.83;1727440;82;25970;-82
2022/12/03 07:52:12;;;;;;;53.25;25.02;;;;;;;-1.01;89.55;101809.36;1731301;81;25871;-82
2022/12/03 07:54:38;;;;;;;49.40;26.02;;;;;;;-0.96;89.78;101809.47;1744341;82;26467;-82
2022/12/03 07:57:05;;;;;;;53.52;27.60;;;;;;;-0.90;89.96;101812.25;1741381;81;27455;-83
2022/12/03 07:59:31;;;;;;;55.30;27.22;;;;;;;-0.87;89.84;101817.33;1739597;80;25886;-83
2022/12/03 08:01:57;;;;;;;51.13;26.75;;;;;;;-0.85;89.86;101812.37;1752450;81;26401;-83
2022/12/03 08:04:24;;;;;;;54.55;26.40;;;;;;;-0.84;89.72;101810.59;1726342;81;25809;-82
2022/12/03 08:06:50;;;;;;;49.10;24.75;;;;;;;-0.85;89.67;101807.56;1739656;81;26027;-83
2022/12/03 08:09:16;;;;;;;53.83;27.37;;;;;;;-0.88;89.56;101806.44;1741927;81;27678;-84
2022/12/03 08:11:46;;;;;;;49.27;27.00;;;;;;;-0.91;89.71;101806.14;1756509;80;25881;-85
2022/12/03 08:14:19;;;;;;;57.43;28.12;;;;;;;-0.91;89.76;101807.91;1723671;81;25322;-83
2022/12/03 08:16:46;;;;;;;55.30;29.10;;;;;;;-0.89;89.92;101811.30;1722357;82;26582;-85
2022/12/03 08:19:16;;;;;;;78.35;43.25;;;;;;;-0.89;89.93;101816.11;1722652;83;26730;-84
2022/12/03 08:21:42;;;;;;;69.47;35.10;;;;;;;-0.87;90.05;101808.98;1729384;81;27464;-84
2022/12/03 08:24:16;;;;;;;67.78;34.30;;;;;;;-0.86;90.08;101808.06;1756321;79;26500;-82
2022/12/03 08:26:44;;;;;;;62.83;33.25;;;;;;;-0.84;90.09;101807.97;1742930;80;25819;-85
2022/12/03 08:29:15;;;;;;;61.28;31.30;;;;;;;-0.82;90.22;101817.48;1734201;81;26042;-83
2022/12/03 08:31:44;;;;;;;56.85;29.12;;;;;;;-0.78;90.21;101818.14;1735981;81;25932;-83
2022/12/03 08:34:23;;;;;;;58.05;29.45;;;;;;;-0.79;90.22;101815.97;1743878;81;27521;-84
2022/12/03 08:36:58;;;;;;;51.92;27.02;;;;;;;-0.76;90.27;101818.91;1747982;81;25945;-83
2022/12/03 08:39:33;;;;;;;55.83;26.60;;;;;;;-0.74;90.29;101814.86;1752210;81;25570;-82
2022/12/03 08:45:24;;;;;;;54.15;27.67;;;;;;;-0.71;90.36;101808.98;1757172;81;26035;-80
2022/12/03 08:47:50;;;;;;;50.15;25.80;;;;;;;-0.72;90.29;101818.25;1749112;81;27442;-83
2022/12/03 08:50:29;;;;;;;48.85;25.12;;;;;;;-0.75;90.34;101811.41;1729509;81;25863;-83
2022/12/03 08:53:29;;;;;;;52.78;26.68;;;;;;;-0.73;90.49;101816.12;1724447;81;25969;-82
2022/12/03 08:56:01;;;;;;;47.73;25.57;;;;;;;-0.71;90.41;101814.25;1749329;81;26251;-84
2022/12/03 08:59:03;;;;;;;51.10;25.05;;;;;;;-0.74;90.38;101816.17;1731723;82;25802;-91
2022/12/03 09:01:42;;;;;;;47.10;23.00;;;;;;;-0.75;90.54;101807.46;1746272;81;27552;-86
2022/12/03 09:04:32;;;;;;;49.58;24.70;;;;;;;-0.75;90.40;101802.20;1716976;82;25824;-83
2022/12/03 09:06:59;;;;;;;49.53;24.85;;;;;;;-0.77;90.56;101801.90;1747547;81;25296;-87
2022/12/03 09:09:25;;;;;;;46.30;24.07;;;;;;;-0.77;90.72;101806.70;1766912;80;25875;-84
2022/12/03 09:11:52;;;;;;;48.35;25.52;;;;;;;-0.77;90.81;101795.32;1752564;79;26124;-88
2022/12/03 09:14:21;;;;;;;47.53;25.23;;;;;;;-0.74;91.07;101790.73;1758123;80;27463;-89
2022/12/03 09:16:50;;;;;;;51.77;24.67;;;;;;;-0.72;91.10;101788.86;1758250;79;25763;-87
2022/12/03 09:19:17;;;;;;;48.40;25.35;;;;;;;-0.74;91.02;101784.61;1757291;80;26100;-81
2022/12/03 09:21:43;;;;;;;49.95;25.00;;;;;;;-0.71;91.13;101791.03;1734796;81;25887;-86
2022/12/03 09:24:10;;;;;;;48.80;24.47;;;;;;;-0.72;91.11;101788.00;1734216;81;25753;-88
2022/12/03 09:26:47;;;;;;;;;;;;;;;;;;;;;
2022/12/03 09:29:17;;;;;;;;;;;;;;;;;;;;;
2022/12/03 09:31:51;;;;;;;;;;;;;;;;;;;;;
2022/12/03 09:34:16;;;;;;;48.52;25.68;;;;;;;-0.67;91.35;101774.13;1553477;88;25536;-83
2022/12/03 09:36:42;;;;;;;46.02;23.38;;;;;;;-0.64;91.56;101777.42;1642588;85;26023;-87
2022/12/03 09:39:08;;;;;;;49.67;25.92;;;;;;;-0.60;91.65;101779.44;1650593;85;27458;-88
2022/12/03 09:41:35;;;;;;;46.98;25.08;;;;;;;-0.60;91.59;101776.34;1724843;81;26145;-87
2022/12/03 09:44:02;;;;;;;46.13;25.27;;;;;;;-0.55;91.81;101781.32;1728031;81;25823;-88
2022/12/03 09:46:30;;;;;;;52.27;26.73;;;;;;;-0.53;91.60;101782.08;1725111;82;25804;-88
2022/12/03 09:49:00;;;;;;;55.38;27.48;;;;;;;-0.50;91.76;101786.72;1719966;83;25323;-86
2022/12/03 09:51:33;;;;;;;49.50;26.15;;;;;;;-0.43;91.89;101781.95;1731173;81;27464;-89
2022/12/03 09:54:02;;;;;;;53.02;27.67;;;;;;;-0.40;91.71;101793.61;1739300;81;25840;-87
2022/12/03 09:56:29;;;;;;;51.20;25.05;;;;;;;-0.37;91.79;101790.81;1725571;81;25756;-86
2022/12/03 09:58:55;;;;;;;51.18;26.70;;;;;;;-0.35;91.85;101784.53;1734006;82;25869;-87
2022/12/03 10:01:24;;;;;;;59.98;28.60;;;;;;;-0.28;91.99;101789.80;1744305;80;25879;-93
2022/12/03 10:03:51;;;;;;;60.98;29.18;;;;;;;-0.19;92.03;101783.15;1730514;80;27664;-85
2022/12/03 10:06:21;;;;;;;54.45;31.87;;;;;;;-0.11;92.19;101783.08;1750378;80;25983;-83
2022/12/03 10:08:52;;;;;;;58.28;31.87;;;;;;;-0.03;92.06;101774.75;1747080;80;25875;-83
2022/12/03 10:11:23;;;;;;;57.95;32.05;;;;;;;0.00;91.94;101766.68;1749708;80;25850;-85
2022/12/03 10:13:54;;;;;;;54.83;29.05;;;;;;;0.04;91.86;101762.06;1738406;80;25803;-86
2022/12/03 10:16:21;;;;;;;54.30;26.65;;;;;;;0.05;91.71;101758.02;1731206;81;27484;-85
2022/12/03 10:18:58;;;;;;;54.85;27.50;;;;;;;0.05;91.61;101762.42;1716409;81;26036;-83
2022/12/03 10:21:31;;;;;;;52.25;27.65;;;;;;;0.04;91.51;101761.60;1741450;81;26456;-82
2022/12/03 10:24:21;;;;;;;59.88;30.92;;;;;;;0.08;91.76;101766.20;1739328;81;26445;-82
2022/12/03 10:26:50;;;;;;;87.57;53.20;;;;;;;0.09;91.72;101761.30;1706308;80;25916;-82
2022/12/03 10:29:25;;;;;;;78.03;43.27;;;;;;;0.13;91.74;101761.52;1755897;80;27502;-82
2022/12/03 10:31:58;;;;;;;75.20;35.00;;;;;;;0.16;91.81;101759.54;1763178;80;25903;-82
2022/12/03 10:34:37;;;;;;;60.98;30.23;;;;;;;0.21;91.77;101748.27;1729949;82;25859;-84
2022/12/03 10:37:12;;;;;;;68.10;38.78;;;;;;;0.26;91.53;101751.91;1736441;81;25847;-84
2022/12/03 10:40:07;;;;;;;68.55;34.23;;;;;;;0.27;91.55;101757.11;1734439;81;26401;-88
2022/12/03 10:42:33;;;;;;;59.65;30.50;;;;;;;0.33;91.79;101744.88;1761375;80;28499;-87
2022/12/03 10:45:14;;;;;;;56.95;31.10;;;;;;;0.38;91.76;101752.04;1762115;80;25367;-87
2022/12/03 10:47:41;;;;;;;62.37;33.70;;;;;;;0.43;92.24;101749.09;1750701;81;25876;-85
2022/12/03 10:50:19;;;;;;;63.23;33.40;;;;;;;0.46;91.88;101748.45;1745503;81;25871;-83
2022/12/03 10:52:47;;;;;;;80.12;43.70;;;;;;;0.46;91.59;101743.19;1722769;82;25865;-87
2022/12/03 10:55:15;;;;;;;382.17;221.40;;;;;;;0.50;91.67;101741.20;1724772;81;27462;-85
2022/12/03 10:57:43;;;;;;;111.77;56.45;;;;;;;0.53;91.64;101735.28;1752898;81;26022;-85
2022/12/03 11:00:16;;;;;;;88.67;43.90;;;;;;;0.53;91.46;101733.11;1759563;80;25827;-86
2022/12/03 11:02:48;;;;;;;69.72;35.75;;;;;;;0.54;91.39;101732.15;1752522;80;26496;-88
2022/12/03 11:05:19;;;;;;;126.07;63.55;;;;;;;0.52;91.28;101738.84;1737640;81;25879;-85
2022/12/03 11:07:46;;;;;;;128.78;65.57;;;;;;;0.53;91.51;101737.92;1725341;81;27475;-86
2022/12/03 11:10:16;;;;;;;106.03;52.35;;;;;;;0.56;91.64;101731.13;1761294;79;25813;-85
2022/12/03 11:13:24;;;;;;;90.00;44.70;;;;;;;0.60;91.68;101735.72;1765159;79;25532;-84
2022/12/03 11:15:50;;;;;;;138.15;73.00;;;;;;;0.59;91.38;101738.84;1760271;79;25841;-86
2022/12/03 11:18:38;;;;;;;87.70;48.20;;;;;;;0.58;91.58;101737.60;1753519;79;25925;-80
2022/12/03 11:21:11;;;;;;;86.15;50.50;;;;;;;0.59;91.52;101732.72;1757634;79;27514;-81
2022/12/03 11:23:52;;;;;;;88.95;47.20;;;;;;;0.58;91.57;101733.65;1727175;81;25735;-81
2022/12/03 11:26:30;;;;;;;119.17;59.15;;;;;;;0.60;91.59;101730.45;1754755;80;26414;-81
2022/12/03 11:28:58;;;;;;;110.78;56.45;;;;;;;0.61;91.73;101722.93;1751897;80;25898;-79
2022/12/03 11:31:46;;;;;;;88.20;45.00;;;;;;;0.62;91.63;101722.00;1757246;80;26513;-80
2022/12/03 11:34:28;;;;;;;74.22;39.70;;;;;;;0.63;91.65;101717.94;1740563;80;28762;-80
2022/12/03 11:37:15;;;;;;;120.20;75.55;;;;;;;0.64;91.85;101717.48;1741735;81;25775;-80
2022/12/03 11:39:54;;;;;;;85.92;48.78;;;;;;;0.65;91.65;101722.64;1734636;81;25982;-80
2022/12/03 11:42:27;;;;;;;69.58;38.98;;;;;;;0.67;91.76;101710.67;1759896;81;26495;-79
2022/12/03 11:45:11;;;;;;;95.25;67.05;;;;;;;0.63;91.57;101719.26;1744104;81;25857;-80
2022/12/03 11:47:43;;;;;;;70.35;44.80;;;;;;;0.64;91.58;101722.75;1744178;81;27477;-80
2022/12/03 11:50:37;;;;;;;68.70;37.67;;;;;;;0.66;91.86;101719.05;1729682;81;25601;-80